»·PEaware :: N416JK KLAS-KTUS

N416JK :: KLAS-KTUS

FLIGHT INFORMATION

Flight Status: Arrived
Operator: Privately registered:
United States
More flights under this callsign
Pilot: John K. (4202)
Aircraft: ECLIPSE 500
(EA50)
More flights by this aircraft type
Origin: KLAS McCarran Intl
United States
Destination: KTUS Tucson Intl
United States
More flights between these airports :: More routes between these airports
Route: +PRFUM4 DRK V257 PXR DINGO5
File this flight plan on PilotEdge
Remarks: PRFUM4 DRK
Altitude:
(Current/Filed)
15,000ft
Speed:
(Current/Filed)
320kts
Departed: 15-Sep-20 10:16 AM
Arrived: 15-Sep-20 11:35 AM
Distance/Time
Traveled:
316nm/1:19
Distance/Time
To Go:
Arrived

Flight Plot

Page will automatically refresh every two minutes.

Flight plan parsing failed; only flown route is shown


Map Options




Map Legend


Flown Route
Filed Route
Departure Airport
Arrival Airport
Navaid (VOR, NDB)
Fix

Horizontal Profiles

Position Reports

Time Latitude Longitude Heading Altitude Ground
Speed
15-Sep-20 09:52 36.083666 -115.169972 89 2161ft 0kts
15-Sep-20 09:53 36.083666 -115.169972 89 2161ft 0kts
15-Sep-20 09:54 36.083666 -115.169972 89 2161ft 0kts
15-Sep-20 09:55 36.083666 -115.169972 89 2161ft 0kts
15-Sep-20 09:56 36.083666 -115.169972 89 2161ft 0kts
15-Sep-20 09:57 36.083666 -115.169972 89 2161ft 0kts
15-Sep-20 09:58 36.083666 -115.169972 89 2161ft 0kts
15-Sep-20 09:59 36.083666 -115.169972 89 2161ft 0kts
15-Sep-20 10:00 36.083666 -115.169972 89 2161ft 0kts
15-Sep-20 10:01 36.083666 -115.169972 89 2161ft 0kts
15-Sep-20 10:02 36.083666 -115.169972 89 2161ft 0kts
15-Sep-20 10:03 36.083666 -115.169972 89 2161ft 0kts
15-Sep-20 10:04 36.083666 -115.169972 89 2161ft 0kts
15-Sep-20 10:05 36.083666 -115.169972 89 2161ft 0kts
15-Sep-20 10:06 36.083666 -115.169972 89 2161ft 0kts
15-Sep-20 10:07 36.083666 -115.169972 89 2161ft 0kts
15-Sep-20 10:09 36.083666 -115.169972 89 2161ft 0kts
15-Sep-20 10:10 36.083666 -115.169972 89 2161ft 0kts
15-Sep-20 10:11 36.083627 -115.169865 124 2161ft 2kts
15-Sep-20 10:12 36.083417 -115.169500 125 2161ft 0kts
15-Sep-20 10:13 36.083417 -115.169500 125 2161ft 0kts
15-Sep-20 10:14 36.084106 -115.167749 25 2153ft 28kts
15-Sep-20 10:15 36.089684 -115.164556 25 2131ft 28kts
15-Sep-20 10:16 36.098134 -115.159738 24 2095ft 42kts
15-Sep-20 10:17 36.100211 -115.157258 214 2084ft 0kts
15-Sep-20 10:18 36.100015 -115.157434 143 2084ft 0kts
15-Sep-20 10:19 36.098612 -115.157033 204 2084ft 33kts
15-Sep-20 10:20 36.078186 -115.169100 203 2933ft 127kts
15-Sep-20 10:21 36.003510 -115.229395 242 4324ft 218kts
15-Sep-20 10:22 35.973119 -115.293426 217 5294ft 185kts
15-Sep-20 10:23 35.926257 -115.284579 161 6525ft 166kts
15-Sep-20 10:24 35.882646 -115.267999 162 8020ft 180kts
15-Sep-20 10:25 35.856012 -115.218115 107 9478ft 170kts
15-Sep-20 10:25 35.845975 -115.176252 108 11010ft 159kts
15-Sep-20 10:26 35.834232 -115.127267 109 13267ft 116kts
15-Sep-20 10:28 35.824529 -115.088045 107 15070ft 102kts
15-Sep-20 10:28 35.820622 -115.056675 83 15924ft 130kts
15-Sep-20 10:29 35.825511 -115.006384 82 17086ft 161kts
15-Sep-20 10:30 35.830459 -114.948062 82 18296ft 177kts
15-Sep-20 10:32 35.835965 -114.877703 82 19698ft 188kts
15-Sep-20 10:32 35.839613 -114.829620 82 20547ft 220kts
15-Sep-20 10:33 35.845861 -114.745577 82 21186ft 280kts
15-Sep-20 10:34 35.853489 -114.640647 82 21184ft 330kts
15-Sep-20 10:35 35.821899 -114.532619 122 21183ft 360kts
15-Sep-20 10:36 35.765779 -114.427428 121 21183ft 376kts
15-Sep-20 10:37 35.707533 -114.317972 122 21182ft 387kts
15-Sep-20 10:38 35.648430 -114.207188 122 21327ft 389kts
15-Sep-20 10:39 35.588666 -114.095460 121 21466ft 391kts
15-Sep-20 10:40 35.528579 -113.983518 122 21502ft 392kts
15-Sep-20 10:41 35.469170 -113.873221 122 21265ft 382kts
15-Sep-20 10:42 35.418540 -113.779504 121 21265ft 374kts
15-Sep-20 10:43 35.361349 -113.673953 121 21266ft 370kts
15-Sep-20 10:44 35.304484 -113.569305 121 21264ft 368kts
15-Sep-20 10:45 35.247985 -113.465639 121 21265ft 367kts
15-Sep-20 10:46 35.191401 -113.362107 122 21267ft 367kts
15-Sep-20 10:47 35.134513 -113.258379 122 21266ft 367kts
15-Sep-20 10:48 35.076664 -113.153159 122 21265ft 379kts
15-Sep-20 10:49 35.017299 -113.045550 122 21363ft 384kts
15-Sep-20 10:50 34.957288 -112.937086 122 21377ft 389kts
15-Sep-20 10:51 34.896530 -112.827609 122 21405ft 391kts
15-Sep-20 10:52 34.835394 -112.717780 123 21444ft 391kts
15-Sep-20 10:53 34.774423 -112.608615 123 21398ft 389kts
15-Sep-20 10:54 34.714780 -112.502140 123 21375ft 382kts
15-Sep-20 10:55 34.635711 -112.414799 140 21375ft 390kts
15-Sep-20 10:56 34.550855 -112.331951 141 21422ft 393kts
15-Sep-20 10:57 34.465451 -112.248739 141 21485ft 394kts
15-Sep-20 10:58 34.362945 -112.208443 168 21532ft 394kts
15-Sep-20 10:59 34.255820 -112.180829 168 21512ft 392kts
15-Sep-20 11:00 34.152403 -112.154137 169 21375ft 373kts
15-Sep-20 11:01 34.050416 -112.127863 169 21158ft 382kts
15-Sep-20 11:02 33.946267 -112.101112 169 21138ft 385kts
15-Sep-20 11:03 33.841296 -112.074208 169 21135ft 385kts
15-Sep-20 11:04 33.736845 -112.047497 169 21135ft 385kts
15-Sep-20 11:05 33.631954 -112.020747 169 21142ft 385kts
15-Sep-20 11:06 33.527292 -111.994130 169 21012ft 385kts
15-Sep-20 11:07 33.428549 -111.969665 174 19667ft 343kts
15-Sep-20 11:08 33.337408 -111.959409 175 18451ft 315kts
15-Sep-20 11:09 33.253041 -111.949923 174 17778ft 306kts
15-Sep-20 11:10 33.166598 -111.940197 174 17088ft 318kts
15-Sep-20 11:11 33.078070 -111.930272 173 16398ft 322kts
15-Sep-20 11:12 32.988144 -111.920207 173 15524ft 328kts
15-Sep-20 11:13 32.897164 -111.909976 171 14543ft 330kts
15-Sep-20 11:14 32.820917 -111.855061 142 13533ft 322kts
15-Sep-20 11:15 32.747872 -111.794463 142 12705ft 317kts
15-Sep-20 11:16 32.672700 -111.732380 142 12331ft 324kts
15-Sep-20 11:17 32.601531 -111.673713 142 11928ft 302kts
15-Sep-20 11:18 32.539874 -111.614831 123 11932ft 263kts
15-Sep-20 11:19 32.495922 -111.544824 123 10910ft 272kts
15-Sep-20 11:20 32.451255 -111.474035 123 9319ft 260kts
15-Sep-20 11:21 32.411565 -111.411351 123 8932ft 214kts
15-Sep-20 11:22 32.380427 -111.362143 123 8676ft 214kts
15-Sep-20 11:23 32.346105 -111.301871 119 7454ft 224kts
15-Sep-20 11:24 32.313475 -111.239518 121 5963ft 214kts
15-Sep-20 11:25 32.304072 -111.181514 84 5963ft 165kts
15-Sep-20 11:26 32.288845 -111.137311 137 5935ft 154kts
15-Sep-20 11:27 32.254953 -111.101087 135 5938ft 178kts
15-Sep-20 11:28 32.222074 -111.063767 131 5315ft 145kts
15-Sep-20 11:29 32.195675 -111.032855 131 4603ft 120kts
15-Sep-20 11:30 32.175119 -111.008716 131 4038ft 92kts
15-Sep-20 11:31 32.156361 -110.986623 132 3525ft 97kts
15-Sep-20 11:32 32.137029 -110.963918 134 2996ft 99kts
15-Sep-20 11:33 32.118458 -110.942166 135 2592ft 56kts
15-Sep-20 11:34 32.116655 -110.938727 17 2601ft 0kts
15-Sep-20 11:35 32.116655 -110.938727 17 2601ft 0kts
15-Sep-20 11:36 32.117033 -110.938552 29 2600ft 5kts
15-Sep-20 11:37 32.122757 -110.943311 356 2582ft 20kts

Navigation Log

Ident Type
Flight plan parsing failed, navigation log unavailable